Time,TemperatureF,DewpointF,PressureIn,WindDirection,WindDirectionDegrees,WindSpeedMPH,WindSpeedGustMPH,Humidity,HourlyPrecipIn,Conditions,Clouds,dailyrainin,SoftwareType,DateUTC
2013-03-12 00:00:00,49.8,48.9,29.84,NNW,341,0.0,0.0,97,0.19,,,0.90,meteohub,2013-03-12 04:00:00,
2013-03-12 00:05:00,49.8,48.9,29.84,NNW,338,0.0,0.0,97,0.19,,,0.92,meteohub,2013-03-12 04:05:00,
2013-03-12 00:10:00,49.8,48.9,29.84,NNW,340,0.0,1.0,97,0.25,,,0.98,meteohub,2013-03-12 04:10:00,
2013-03-12 00:15:00,49.8,48.9,29.84,North,0,0.0,1.0,97,0.27,,,1.01,meteohub,2013-03-12 04:15:00,
2013-03-12 00:20:00,50.0,49.1,29.84,ESE,103,0.0,1.0,97,0.29,,,1.04,meteohub,2013-03-12 04:20:00,
2013-03-12 00:25:00,49.8,48.9,29.84,ESE,103,0.0,1.0,97,0.27,,,1.05,meteohub,2013-03-12 04:25:00,
2013-03-12 00:30:00,49.8,48.9,29.83,ESE,103,0.0,0.0,97,0.27,,,1.08,meteohub,2013-03-12 04:30:00,
2013-03-12 00:35:00,49.8,48.9,29.83,North,359,1.0,1.0,97,0.26,,,1.09,meteohub,2013-03-12 04:35:00,
2013-03-12 00:40:00,49.8,48.9,29.83,NNW,336,0.0,2.0,97,0.23,,,1.09,meteohub,2013-03-12 04:40:00,
2013-03-12 00:45:00,50.0,49.5,29.83,SSW,207,0.0,2.0,98,0.25,,,1.12,meteohub,2013-03-12 04:45:00,
2013-03-12 00:50:00,50.2,49.6,29.82,WNW,292,0.0,2.0,98,0.25,,,1.14,meteohub,2013-03-12 04:50:00,
2013-03-12 00:55:00,50.2,49.6,29.82,ESE,120,2.0,6.0,98,0.26,,,1.16,meteohub,2013-03-12 04:55:00,
2013-03-12 01:00:00,50.4,49.8,29.82,West,259,2.0,6.0,98,0.28,,,1.19,meteohub,2013-03-12 05:00:00,
2013-03-12 01:05:00,50.5,50.0,29.81,WSW,258,1.0,9.0,98,0.26,,,1.19,meteohub,2013-03-12 05:05:00,
2013-03-12 01:10:00,50.7,50.2,29.81,SE,127,2.0,9.0,98,0.21,,,1.19,meteohub,2013-03-12 05:10:00,
2013-03-12 01:15:00,50.7,50.2,29.81,SE,143,2.0,11.0,98,0.17,,,1.19,meteohub,2013-03-12 05:15:00,
2013-03-12 01:20:00,50.7,49.8,29.81,SSW,210,7.0,11.0,97,0.16,,,1.20,meteohub,2013-03-12 05:20:00,
2013-03-12 01:25:00,50.7,49.8,29.80,SE,141,3.0,9.0,97,0.13,,,1.20,meteohub,2013-03-12 05:25:00,
2013-03-12 01:30:00,50.9,50.0,29.80,SSW,193,0.0,9.0,97,0.13,,,1.21,meteohub,2013-03-12 05:30:00,
2013-03-12 01:36:00,50.9,50.0,29.80,South,177,3.0,9.0,97,0.13,,,1.22,meteohub,2013-03-12 05:36:00,
2013-03-12 01:41:00,50.9,50.0,29.80,WSW,245,1.0,9.0,97,0.12,,,1.22,meteohub,2013-03-12 05:41:00,
2013-03-12 01:46:00,50.9,50.0,29.80,SW,226,0.0,6.0,97,0.12,,,1.24,meteohub,2013-03-12 05:46:00,
2013-03-12 01:51:00,50.9,50.0,29.79,SSE,148,4.0,5.0,97,0.09,,,1.24,meteohub,2013-03-12 05:51:00,
2013-03-12 01:56:00,50.7,49.8,29.79,WSW,250,0.0,8.0,97,0.08,,,1.26,meteohub,2013-03-12 05:56:00,
2013-03-12 02:01:00,50.7,49.8,29.79,SW,225,2.0,8.0,97,0.09,,,1.28,meteohub,2013-03-12 06:01:00,
2013-03-12 02:06:00,50.7,49.8,29.79,West,264,1.0,8.0,97,0.09,,,1.28,meteohub,2013-03-12 06:06:00,
2013-03-12 02:11:00,50.7,49.8,29.79,WSW,243,0.0,5.0,97,0.10,,,1.29,meteohub,2013-03-12 06:11:00,
2013-03-12 02:16:00,50.7,49.8,29.79,WSW,248,1.0,6.0,97,0.11,,,1.30,meteohub,2013-03-12 06:16:00,
2013-03-12 02:21:00,50.7,49.8,29.79,North,11,0.0,6.0,97,0.10,,,1.30,meteohub,2013-03-12 06:21:00,
2013-03-12 02:26:00,50.7,49.8,29.79,West,278,0.0,6.0,97,0.10,,,1.31,meteohub,2013-03-12 06:26:00,
2013-03-12 02:31:00,50.7,49.8,29.79,WSW,253,0.0,5.0,97,0.11,,,1.32,meteohub,2013-03-12 06:31:00,
2013-03-12 02:36:00,50.7,49.8,29.78,SW,217,0.0,5.0,97,0.10,,,1.32,meteohub,2013-03-12 06:36:00,
2013-03-12 02:41:00,50.7,49.8,29.78,SSE,166,0.0,8.0,97,0.10,,,1.32,meteohub,2013-03-12 06:41:00,
2013-03-12 02:47:00,50.7,49.8,29.78,SW,221,1.0,8.0,97,0.09,,,1.33,meteohub,2013-03-12 06:47:00,
2013-03-12 02:52:00,50.7,49.8,29.78,WNW,290,1.0,8.0,97,0.08,,,1.33,meteohub,2013-03-12 06:52:00,
2013-03-12 02:57:00,50.7,49.8,29.78,WSW,238,4.0,8.0,97,0.07,,,1.33,meteohub,2013-03-12 06:57:00,
2013-03-12 03:02:00,50.7,49.8,29.78,SW,228,0.0,8.0,97,0.05,,,1.33,meteohub,2013-03-12 07:02:00,
2013-03-12 03:07:00,50.7,49.8,29.78,WSW,240,0.0,5.0,97,0.05,,,1.34,meteohub,2013-03-12 07:07:00,
2013-03-12 03:12:00,50.9,50.0,29.78,SW,225,0.0,7.0,97,0.05,,,1.34,meteohub,2013-03-12 07:12:00,
2013-03-12 03:17:00,50.9,50.0,29.78,NE,44,1.0,7.0,97,0.04,,,1.34,meteohub,2013-03-12 07:17:00,
2013-03-12 03:22:00,50.9,50.0,29.78,NW,319,0.0,6.0,97,0.05,,,1.35,meteohub,2013-03-12 07:22:00,
2013-03-12 03:27:00,50.9,50.0,29.78,NW,309,0.0,4.0,97,0.04,,,1.35,meteohub,2013-03-12 07:27:00,
2013-03-12 03:32:00,50.9,50.0,29.78,West,260,0.0,4.0,97,0.04,,,1.36,meteohub,2013-03-12 07:32:00,
2013-03-12 03:37:00,50.9,50.0,29.77,SE,129,0.0,2.0,97,0.04,,,1.36,meteohub,2013-03-12 07:37:00,
2013-03-12 03:42:00,50.9,50.0,29.77,West,269,1.0,1.0,97,0.04,,,1.36,meteohub,2013-03-12 07:42:00,
2013-03-12 03:47:00,51.1,50.2,29.77,West,281,0.0,2.0,97,0.05,,,1.38,meteohub,2013-03-12 07:47:00,
2013-03-12 03:52:00,50.9,50.0,29.77,WSW,249,3.0,3.0,97,0.05,,,1.38,meteohub,2013-03-12 07:52:00,
2013-03-12 03:57:00,51.1,50.2,29.77,WNW,296,1.0,3.0,97,0.06,,,1.39,meteohub,2013-03-12 07:57:00,
2013-03-12 04:02:00,51.1,50.2,29.77,WNW,299,0.0,3.0,97,0.06,,,1.40,meteohub,2013-03-12 08:02:00,
2013-03-12 04:07:00,51.1,50.2,29.77,WSW,256,0.0,3.0,97,0.06,,,1.40,meteohub,2013-03-12 08:07:00,
2013-03-12 04:12:00,51.1,50.2,29.77,West,274,0.0,2.0,97,0.06,,,1.40,meteohub,2013-03-12 08:12:00,
2013-03-12 04:17:00,50.9,50.0,29.77,West,260,0.0,2.0,97,0.06,,,1.40,meteohub,2013-03-12 08:17:00,
2013-03-12 04:22:00,50.9,50.0,29.77,West,266,0.0,1.0,97,0.05,,,1.40,meteohub,2013-03-12 08:22:00,
2013-03-12 04:27:00,50.7,49.8,29.77,WSW,245,1.0,3.0,97,0.06,,,1.41,meteohub,2013-03-12 08:27:00,
2013-03-12 04:32:00,50.7,49.8,29.77,West,261,0.0,3.0,97,0.05,,,1.41,meteohub,2013-03-12 08:32:00,
2013-03-12 04:37:00,50.7,49.8,29.76,WSW,257,0.0,5.0,97,0.05,,,1.41,meteohub,2013-03-12 08:37:00,
2013-03-12 04:42:00,50.7,49.8,29.77,SW,229,0.0,5.0,97,0.04,,,1.41,meteohub,2013-03-12 08:42:00,
2013-03-12 04:47:00,50.7,49.8,29.76,SW,218,2.0,3.0,97,0.03,,,1.41,meteohub,2013-03-12 08:47:00,
2013-03-12 04:52:00,50.7,49.8,29.76,WSW,252,3.0,3.0,97,0.03,,,1.41,meteohub,2013-03-12 08:52:00,
2013-03-12 04:57:00,50.7,49.8,29.76,WSW,255,1.0,6.0,97,0.01,,,1.41,meteohub,2013-03-12 08:57:00,
2013-03-12 05:02:00,50.7,49.8,29.76,NW,307,0.0,6.0,97,0.01,,,1.41,meteohub,2013-03-12 09:02:00,
2013-03-12 05:07:00,50.7,50.2,29.76,WSW,240,0.0,6.0,98,0.01,,,1.41,meteohub,2013-03-12 09:07:00,
2013-03-12 05:12:00,50.7,50.2,29.76,WSW,242,0.0,3.0,98,0.01,,,1.41,meteohub,2013-03-12 09:12:00,
2013-03-12 05:18:00,50.7,50.2,29.76,SW,215,1.0,2.0,98,0.01,,,1.41,meteohub,2013-03-12 09:18:00,
2013-03-12 05:23:00,50.7,50.2,29.76,West,267,1.0,3.0,98,0.01,,,1.41,meteohub,2013-03-12 09:23:00,
2013-03-12 05:28:00,50.5,50.0,29.77,SSW,208,0.0,3.0,98,0.00,,,1.41,meteohub,2013-03-12 09:28:00,
2013-03-12 05:33:00,50.5,50.0,29.77,West,262,0.0,3.0,98,0.00,,,1.41,meteohub,2013-03-12 09:33:00,
2013-03-12 05:38:00,50.5,50.0,29.77,NW,316,0.0,2.0,98,0.00,,,1.41,meteohub,2013-03-12 09:38:00,
2013-03-12 05:43:00,50.4,49.5,29.77,WNW,285,0.0,4.0,97,0.00,,,1.41,meteohub,2013-03-12 09:43:00,
2013-03-12 05:48:00,50.4,49.5,29.77,WSW,248,0.0,4.0,97,0.00,,,1.41,meteohub,2013-03-12 09:48:00,
2013-03-12 05:53:00,50.2,49.3,29.77,SW,218,0.0,4.0,97,0.00,,,1.41,meteohub,2013-03-12 09:53:00,
2013-03-12 05:58:00,49.8,48.9,29.78,West,280,1.0,1.0,97,0.00,,,1.41,meteohub,2013-03-12 09:58:00,
2013-03-12 06:03:00,49.6,48.7,29.77,WSW,238,0.0,2.0,97,0.00,,,1.41,meteohub,2013-03-12 10:03:00,
2013-03-12 06:08:00,49.5,48.6,29.77,SW,224,0.0,2.0,97,0.00,,,1.41,meteohub,2013-03-12 10:08:00,
2013-03-12 06:13:00,49.1,48.2,29.77,ESE,103,0.0,2.0,97,0.00,,,1.41,meteohub,2013-03-12 10:13:00,
2013-03-12 06:18:00,48.7,47.8,29.77,ESE,117,0.0,2.0,97,0.00,,,1.41,meteohub,2013-03-12 10:18:00,
2013-03-12 06:23:00,48.4,47.5,29.78,ESE,118,0.0,1.0,97,0.00,,,1.41,meteohub,2013-03-12 10:23:00,
2013-03-12 06:28:00,48.0,47.1,29.78,SSW,198,0.0,1.0,97,0.00,,,1.41,meteohub,2013-03-12 10:28:00,
2013-03-12 06:33:00,47.8,46.9,29.78,SSW,200,0.0,1.0,97,0.00,,,1.41,meteohub,2013-03-12 10:33:00,
2013-03-12 06:38:00,47.7,46.9,29.78,SSW,201,0.0,1.0,97,0.00,,,1.41,meteohub,2013-03-12 10:38:00,
2013-03-12 06:43:00,47.5,46.8,29.78,SSW,212,0.0,1.0,97,0.00,,,1.41,meteohub,2013-03-12 10:43:00,
2013-03-12 06:48:00,47.1,46.4,29.78,WSW,242,0.0,2.0,97,0.00,,,1.41,meteohub,2013-03-12 10:48:00,
2013-03-12 06:53:00,46.9,46.2,29.78,NNE,27,0.0,2.0,97,0.00,,,1.41,meteohub,2013-03-12 10:53:00,
2013-03-12 06:58:00,46.6,45.9,29.78,NNE,27,0.0,2.0,97,0.00,,,1.41,meteohub,2013-03-12 10:58:00,
2013-03-12 07:03:00,46.6,45.9,29.79,NE,39,2.0,2.0,97,0.00,,,1.41,meteohub,2013-03-12 11:03:00,
2013-03-12 07:08:00,46.4,45.9,29.79,NE,37,1.0,3.0,98,0.00,,,1.41,meteohub,2013-03-12 11:08:00,
2013-03-12 07:13:00,46.4,45.9,29.78,NNE,29,1.0,3.0,98,0.00,,,1.41,meteohub,2013-03-12 11:13:00,
2013-03-12 07:18:00,46.2,45.7,29.79,North,10,1.0,3.0,98,0.00,,,1.41,meteohub,2013-03-12 11:18:00,
2013-03-12 07:23:00,46.2,45.7,29.79,North,0,1.0,3.0,98,0.00,,,1.41,meteohub,2013-03-12 11:23:00,
2013-03-12 07:28:00,46.2,45.7,29.79,North,5,0.0,2.0,98,0.00,,,1.41,meteohub,2013-03-12 11:28:00,
2013-03-12 07:33:00,46.2,45.7,29.80,NNW,335,0.0,2.0,98,0.00,,,1.41,meteohub,2013-03-12 11:33:00,
2013-03-12 07:38:00,46.0,45.5,29.80,NW,325,0.0,1.0,98,0.00,,,1.41,meteohub,2013-03-12 11:38:00,
2013-03-12 07:43:00,45.9,45.3,29.80,NW,325,0.0,1.0,98,0.00,,,1.41,meteohub,2013-03-12 11:43:00,
2013-03-12 07:48:00,45.9,45.3,29.81,NW,325,0.0,1.0,98,0.00,,,1.41,meteohub,2013-03-12 11:48:00,
2013-03-12 07:53:00,45.3,44.6,29.81,NNE,25,2.0,2.0,97,0.00,,,1.41,meteohub,2013-03-12 11:53:00,
2013-03-12 07:58:00,44.2,43.2,29.81,NNE,25,3.0,3.0,96,0.00,,,1.41,meteohub,2013-03-12 11:58:00,
2013-03-12 08:03:00,43.5,42.8,29.81,North,357,3.0,6.0,97,0.00,,,1.41,meteohub,2013-03-12 12:03:00,
2013-03-12 08:08:00,43.2,42.4,29.81,NNE,26,1.0,6.0,97,0.00,,,1.41,meteohub,2013-03-12 12:08:00,
2013-03-12 08:13:00,43.2,42.4,29.82,NNW,338,0.0,6.0,97,0.00,,,1.41,meteohub,2013-03-12 12:13:00,
2013-03-12 08:18:00,43.2,42.4,29.82,NNW,334,0.0,4.0,97,0.00,,,1.41,meteohub,2013-03-12 12:18:00,
2013-03-12 08:23:00,43.0,42.4,29.83,NNW,347,0.0,2.0,98,0.00,,,1.41,meteohub,2013-03-12 12:23:00,
2013-03-12 08:29:00,43.0,42.4,29.83,NW,315,0.0,2.0,98,0.00,,,1.41,meteohub,2013-03-12 12:29:00,
2013-03-12 08:34:00,42.8,42.3,29.84,NNW,329,1.0,2.0,98,0.00,,,1.41,meteohub,2013-03-12 12:34:00,
2013-03-12 08:39:00,42.4,41.7,29.85,NNE,30,3.0,3.0,97,0.00,,,1.41,meteohub,2013-03-12 12:39:00,
2013-03-12 08:44:00,42.1,41.4,29.85,NNE,25,0.0,6.0,97,0.00,,,1.41,meteohub,2013-03-12 12:44:00,
2013-03-12 08:49:00,41.7,41.0,29.85,NNE,20,2.0,6.0,97,0.00,,,1.41,meteohub,2013-03-12 12:49:00,
2013-03-12 08:54:00,41.7,41.0,29.85,NW,320,0.0,6.0,97,0.00,,,1.41,meteohub,2013-03-12 12:54:00,
2013-03-12 08:59:00,41.9,41.4,29.85,NNW,335,0.0,5.0,98,0.00,,,1.41,meteohub,2013-03-12 12:59:00,
2013-03-12 09:04:00,42.1,41.5,29.85,NE,39,1.0,5.0,98,0.00,,,1.41,meteohub,2013-03-12 13:04:00,
2013-03-12 09:09:00,42.1,41.5,29.86,ESE,103,2.0,3.0,98,0.00,,,1.41,meteohub,2013-03-12 13:09:00,
2013-03-12 09:14:00,42.1,41.5,29.86,NE,36,1.0,3.0,98,0.00,,,1.41,meteohub,2013-03-12 13:14:00,
2013-03-12 09:19:00,42.1,41.5,29.86,NE,39,3.0,3.0,98,0.00,,,1.41,meteohub,2013-03-12 13:19:00,
2013-03-12 09:24:00,41.9,41.4,29.86,NNE,23,4.0,4.0,98,0.00,,,1.41,meteohub,2013-03-12 13:24:00,
2013-03-12 09:29:00,41.9,41.4,29.86,NNE,33,0.0,5.0,98,0.00,,,1.41,meteohub,2013-03-12 13:29:00,
2013-03-12 09:34:00,41.5,41.0,29.86,NE,44,3.0,5.0,98,0.00,,,1.41,meteohub,2013-03-12 13:34:00,
2013-03-12 09:39:00,41.5,41.0,29.86,NNE,30,3.0,7.0,98,0.00,,,1.41,meteohub,2013-03-12 13:39:00,
2013-03-12 09:44:00,41.2,40.6,29.87,NE,37,2.0,7.0,98,0.00,,,1.41,meteohub,2013-03-12 13:44:00,
2013-03-12 09:49:00,40.8,40.1,29.86,East,84,1.0,7.0,97,0.00,,,1.41,meteohub,2013-03-12 13:49:00,
2013-03-12 09:54:00,40.6,39.9,29.86,NE,41,1.0,6.0,97,0.00,,,1.41,meteohub,2013-03-12 13:54:00,
2013-03-12 09:59:00,40.6,40.1,29.86,ENE,58,2.0,6.0,98,0.00,,,1.41,meteohub,2013-03-12 13:59:00,
2013-03-12 10:04:00,40.5,39.7,29.86,East,93,4.0,6.0,97,0.00,,,1.41,meteohub,2013-03-12 14:04:00,
2013-03-12 10:09:00,40.3,39.6,29.86,East,94,3.0,6.0,97,0.00,,,1.41,meteohub,2013-03-12 14:09:00,
2013-03-12 10:14:00,40.6,40.1,29.87,NE,50,3.0,6.0,98,0.00,,,1.41,meteohub,2013-03-12 14:14:00,
2013-03-12 10:19:00,40.5,39.9,29.87,NNW,334,5.0,5.0,98,0.00,,,1.41,meteohub,2013-03-12 14:19:00,
2013-03-12 10:24:00,39.9,39.2,29.87,NNE,26,10.0,10.0,97,0.00,,,1.41,meteohub,2013-03-12 14:24:00,
2013-03-12 10:29:00,39.9,39.2,29.87,North,8,5.0,11.0,97,0.00,,,1.41,meteohub,2013-03-12 14:29:00,
2013-03-12 10:34:00,39.9,39.2,29.87,NNE,32,9.0,12.0,97,0.00,,,1.41,meteohub,2013-03-12 14:34:00,
2013-03-12 10:39:00,39.7,39.0,29.88,NE,39,8.0,12.0,97,0.00,,,1.41,meteohub,2013-03-12 14:39:00,
2013-03-12 10:44:00,39.4,38.7,29.88,NNE,28,8.0,11.0,97,0.00,,,1.41,meteohub,2013-03-12 14:44:00,
2013-03-12 10:49:00,39.0,38.3,29.88,NNE,27,13.0,13.0,97,0.00,,,1.41,meteohub,2013-03-12 14:49:00,
2013-03-12 10:54:00,38.7,37.9,29.88,NNE,12,4.0,14.0,97,0.00,,,1.41,meteohub,2013-03-12 14:54:00,
2013-03-12 10:59:00,38.8,38.1,29.88,North,11,6.0,15.0,97,0.00,,,1.41,meteohub,2013-03-12 14:59:00,
2013-03-12 11:04:00,39.4,38.8,29.88,North,5,6.0,15.0,98,0.00,,,1.41,meteohub,2013-03-12 15:04:00,
2013-03-12 11:09:00,39.4,38.8,29.88,NE,44,6.0,15.0,98,0.00,,,1.41,meteohub,2013-03-12 15:09:00,
2013-03-12 11:14:00,39.6,39.0,29.88,NE,39,2.0,10.0,98,0.00,,,1.41,meteohub,2013-03-12 15:14:00,
2013-03-12 11:19:00,40.1,39.6,29.88,North,7,7.0,10.0,98,0.00,,,1.41,meteohub,2013-03-12 15:19:00,
2013-03-12 11:24:00,40.5,39.9,29.88,NE,42,5.0,10.0,98,0.00,,,1.41,meteohub,2013-03-12 15:24:00,
2013-03-12 11:29:00,40.8,40.1,29.87,NNE,26,11.0,11.0,97,0.00,,,1.41,meteohub,2013-03-12 15:29:00,
2013-03-12 11:34:00,41.5,40.8,29.88,NE,40,5.0,10.0,97,0.00,,,1.41,meteohub,2013-03-12 15:34:00,
2013-03-12 11:39:00,41.7,40.6,29.88,NE,49,9.0,11.0,96,0.00,,,1.41,meteohub,2013-03-12 15:39:00,
2013-03-12 11:44:00,42.3,41.2,29.88,NE,38,9.0,11.0,96,0.00,,,1.41,meteohub,2013-03-12 15:44:00,
2013-03-12 11:49:00,42.4,40.8,29.88,NE,39,7.0,9.0,94,0.00,,,1.41,meteohub,2013-03-12 15:49:00,
2013-03-12 11:54:00,43.0,41.4,29.88,NNE,27,4.0,12.0,94,0.00,,,1.41,meteohub,2013-03-12 15:54:00,
2013-03-12 11:59:00,43.7,41.5,29.88,NNW,335,5.0,12.0,92,0.00,,,1.41,meteohub,2013-03-12 15:59:00,
2013-03-12 12:04:00,44.1,41.4,29.89,NNE,33,5.0,12.0,90,0.00,,,1.41,meteohub,2013-03-12 16:04:00,
2013-03-12 12:09:00,44.4,41.4,29.88,NNE,20,10.0,13.0,89,0.00,,,1.41,meteohub,2013-03-12 16:09:00,
2013-03-12 12:14:00,44.8,41.2,29.89,NNE,13,3.0,13.0,87,0.00,,,1.41,meteohub,2013-03-12 16:14:00,
2013-03-12 12:19:00,45.3,41.0,29.89,NNW,347,3.0,13.0,85,0.00,,,1.41,meteohub,2013-03-12 16:19:00,
2013-03-12 12:24:00,45.5,40.6,29.89,NE,43,7.0,12.0,83,0.00,,,1.41,meteohub,2013-03-12 16:24:00,
2013-03-12 12:29:00,45.9,41.4,29.89,North,6,5.0,12.0,84,0.00,,,1.41,meteohub,2013-03-12 16:29:00,
2013-03-12 12:34:00,46.6,41.7,29.89,NNE,25,9.0,11.0,83,0.00,,,1.41,meteohub,2013-03-12 16:34:00,
2013-03-12 12:39:00,47.1,42.8,29.89,WSW,256,0.0,11.0,85,0.00,,,1.41,meteohub,2013-03-12 16:39:00,
2013-03-12 12:44:00,48.0,43.2,29.90,NW,325,4.0,10.0,83,0.00,,,1.41,meteohub,2013-03-12 16:44:00,
2013-03-12 12:50:00,48.2,42.3,29.90,North,355,1.0,9.0,80,0.00,,,1.41,meteohub,2013-03-12 16:50:00,
2013-03-12 12:55:00,48.4,42.3,29.90,West,278,2.0,7.0,79,0.00,,,1.41,meteohub,2013-03-12 16:55:00,
2013-03-12 13:00:00,48.6,43.0,29.90,NNW,344,2.0,7.0,81,0.00,,,1.41,meteohub,2013-03-12 17:00:00,
2013-03-12 13:05:00,48.7,41.9,29.90,NNE,31,5.0,10.0,77,0.00,,,1.41,meteohub,2013-03-12 17:05:00,
2013-03-12 13:10:00,49.3,41.7,29.90,WNW,290,2.0,10.0,75,0.00,,,1.41,meteohub,2013-03-12 17:10:00,
2013-03-12 13:15:00,49.6,42.8,29.90,NNW,327,2.0,10.0,77,0.00,,,1.41,meteohub,2013-03-12 17:15:00,
2013-03-12 13:20:00,50.0,42.1,29.90,NW,314,1.0,10.0,74,0.00,,,1.41,meteohub,2013-03-12 17:20:00,
2013-03-12 13:25:00,50.4,42.8,29.90,NW,304,0.0,8.0,75,0.00,,,1.41,meteohub,2013-03-12 17:25:00,
2013-03-12 13:30:00,50.9,41.2,29.90,West,280,2.0,8.0,69,0.00,,,1.41,meteohub,2013-03-12 17:30:00,
2013-03-12 13:35:00,51.1,42.4,29.90,NNE,23,5.0,8.0,72,0.00,,,1.41,meteohub,2013-03-12 17:35:00,
2013-03-12 13:40:00,51.1,41.7,29.90,NW,309,1.0,8.0,70,0.00,,,1.41,meteohub,2013-03-12 17:40:00,
2013-03-12 13:45:00,51.6,42.1,29.90,NE,46,4.0,9.0,70,0.00,,,1.41,meteohub,2013-03-12 17:45:00,
2013-03-12 13:50:00,52.0,41.4,29.90,NW,325,0.0,9.0,67,0.00,,,1.41,meteohub,2013-03-12 17:50:00,
2013-03-12 13:55:00,51.8,40.5,29.90,NW,311,2.0,7.0,65,0.00,,,1.41,meteohub,2013-03-12 17:55:00,
2013-03-12 14:00:00,52.3,41.0,29.90,NNE,22,2.0,5.0,65,0.00,,,1.41,meteohub,2013-03-12 18:00:00,
2013-03-12 14:05:00,52.5,40.3,29.89,ESE,120,0.0,6.0,63,0.00,,,1.41,meteohub,2013-03-12 18:05:00,
2013-03-12 14:10:00,53.2,39.2,29.89,North,357,2.0,6.0,59,0.00,,,1.41,meteohub,2013-03-12 18:10:00,
2013-03-12 14:15:00,53.1,39.2,29.89,NE,50,1.0,7.0,59,0.00,,,1.41,meteohub,2013-03-12 18:15:00,
2013-03-12 14:20:00,53.4,39.4,29.89,NNW,340,1.0,7.0,59,0.00,,,1.41,meteohub,2013-03-12 18:20:00,
2013-03-12 14:25:00,53.8,38.8,29.89,WNW,285,3.0,7.0,57,0.00,,,1.41,meteohub,2013-03-12 18:25:00,
2013-03-12 14:30:00,54.0,38.7,29.89,NE,48,3.0,9.0,56,0.00,,,1.41,meteohub,2013-03-12 18:30:00,
2013-03-12 14:35:00,53.8,38.5,29.89,North,356,1.0,10.0,56,0.00,,,1.41,meteohub,2013-03-12 18:35:00,
2013-03-12 14:40:00,54.3,40.3,29.89,NNE,26,3.0,10.0,59,0.00,,,1.41,meteohub,2013-03-12 18:40:00,
2013-03-12 14:45:00,55.2,40.6,29.89,ENE,58,2.0,10.0,58,0.00,,,1.41,meteohub,2013-03-12 18:45:00,
2013-03-12 14:50:00,55.2,38.8,29.89,NNW,330,1.0,4.0,54,0.00,,,1.41,meteohub,2013-03-12 18:50:00,
2013-03-12 14:55:00,55.0,39.6,29.88,NNW,335,0.0,4.0,56,0.00,,,1.41,meteohub,2013-03-12 18:55:00,
2013-03-12 15:00:00,55.2,39.4,29.88,NW,318,4.0,6.0,55,0.00,,,1.41,meteohub,2013-03-12 19:00:00,
2013-03-12 15:05:00,55.2,39.4,29.88,West,259,1.0,6.0,55,0.00,,,1.41,meteohub,2013-03-12 19:05:00,
2013-03-12 15:10:00,55.8,38.5,29.88,West,271,1.0,6.0,52,0.00,,,1.41,meteohub,2013-03-12 19:10:00,
2013-03-12 15:15:00,56.1,39.7,29.87,NNE,20,2.0,5.0,54,0.00,,,1.41,meteohub,2013-03-12 19:15:00,
2013-03-12 15:20:00,56.1,39.2,29.87,NNE,23,3.0,8.0,53,0.00,,,1.41,meteohub,2013-03-12 19:20:00,
2013-03-12 15:25:00,55.9,38.5,29.87,NE,56,5.0,8.0,52,0.00,,,1.41,meteohub,2013-03-12 19:25:00,
2013-03-12 15:30:00,55.8,38.8,29.88,NE,41,2.0,9.0,53,0.00,,,1.41,meteohub,2013-03-12 19:30:00,
2013-03-12 15:35:00,55.6,39.7,29.88,North,356,0.0,9.0,55,0.00,,,1.41,meteohub,2013-03-12 19:35:00,
2013-03-12 15:40:00,55.8,39.4,29.88,NNW,343,2.0,9.0,54,0.00,,,1.41,meteohub,2013-03-12 19:40:00,
2013-03-12 15:45:00,55.8,38.5,29.88,NE,50,3.0,9.0,52,0.00,,,1.41,meteohub,2013-03-12 19:45:00,
2013-03-12 15:50:00,55.8,39.4,29.88,NNE,25,0.0,11.0,54,0.00,,,1.41,meteohub,2013-03-12 19:50:00,
2013-03-12 15:55:00,55.8,38.8,29.88,NNE,26,2.0,11.0,53,0.00,,,1.41,meteohub,2013-03-12 19:55:00,
2013-03-12 16:00:00,55.8,38.8,29.88,NNE,23,4.0,8.0,53,0.00,,,1.41,meteohub,2013-03-12 20:00:00,
2013-03-12 16:06:00,55.9,38.5,29.88,North,350,4.0,8.0,52,0.00,,,1.41,meteohub,2013-03-12 20:06:00,
2013-03-12 16:11:00,55.9,39.6,29.88,ENE,68,3.0,8.0,54,0.00,,,1.41,meteohub,2013-03-12 20:11:00,
2013-03-12 16:16:00,55.9,38.5,29.88,NNE,30,2.0,8.0,52,0.00,,,1.41,meteohub,2013-03-12 20:16:00,
2013-03-12 16:21:00,55.6,38.3,29.88,NE,43,5.0,7.0,52,0.00,,,1.41,meteohub,2013-03-12 20:21:00,
2013-03-12 16:26:00,55.0,38.7,29.88,NNE,20,4.0,8.0,54,0.00,,,1.41,meteohub,2013-03-12 20:26:00,
2013-03-12 16:31:00,54.7,38.8,29.88,NE,40,4.0,8.0,55,0.00,,,1.41,meteohub,2013-03-12 20:31:00,
2013-03-12 16:36:00,54.9,38.5,29.88,NNE,24,3.0,8.0,54,0.00,,,1.41,meteohub,2013-03-12 20:36:00,
2013-03-12 16:41:00,54.3,38.5,29.88,NE,41,4.0,6.0,55,0.00,,,1.41,meteohub,2013-03-12 20:41:00,
2013-03-12 16:46:00,54.1,38.8,29.88,ENE,74,2.0,8.0,56,0.00,,,1.41,meteohub,2013-03-12 20:46:00,
2013-03-12 16:51:00,54.1,39.2,29.89,NE,44,6.0,9.0,57,0.00,,,1.41,meteohub,2013-03-12 20:51:00,
2013-03-12 16:56:00,53.8,38.8,29.89,ENE,65,2.0,9.0,57,0.00,,,1.41,meteohub,2013-03-12 20:56:00,
2013-03-12 17:01:00,53.8,38.8,29.89,ESE,106,0.0,9.0,57,0.00,,,1.41,meteohub,2013-03-12 21:01:00,
2013-03-12 17:06:00,54.0,38.7,29.89,East,89,1.0,9.0,56,0.00,,,1.41,meteohub,2013-03-12 21:06:00,
2013-03-12 17:11:00,53.6,38.7,29.89,ENE,64,5.0,5.0,57,0.00,,,1.41,meteohub,2013-03-12 21:11:00,
2013-03-12 17:16:00,53.2,37.9,29.89,North,355,1.0,7.0,56,0.00,,,1.41,meteohub,2013-03-12 21:16:00,
2013-03-12 17:21:00,53.8,37.9,29.89,ENE,70,3.0,7.0,55,0.00,,,1.41,meteohub,2013-03-12 21:21:00,
2013-03-12 17:27:00,53.4,38.1,29.89,NNE,29,0.0,7.0,56,0.00,,,1.41,meteohub,2013-03-12 21:27:00,
2013-03-12 17:32:00,53.2,37.9,29.89,ENE,58,3.0,5.0,56,0.00,,,1.41,meteohub,2013-03-12 21:32:00,
2013-03-12 17:37:00,52.9,38.1,29.89,WNW,294,1.0,7.0,57,0.00,,,1.41,meteohub,2013-03-12 21:37:00,
2013-03-12 17:42:00,53.1,37.8,29.89,NE,35,0.0,7.0,56,0.00,,,1.41,meteohub,2013-03-12 21:42:00,
2013-03-12 17:47:00,53.2,38.5,29.89,North,359,3.0,6.0,57,0.00,,,1.41,meteohub,2013-03-12 21:47:00,
2013-03-12 17:52:00,53.2,37.9,29.90,East,81,2.0,8.0,56,0.00,,,1.41,meteohub,2013-03-12 21:52:00,
2013-03-12 17:57:00,52.9,37.6,29.90,NE,49,1.0,8.0,56,0.00,,,1.41,meteohub,2013-03-12 21:57:00,
2013-03-12 18:02:00,52.9,38.5,29.90,NE,41,3.0,8.0,58,0.00,,,1.41,meteohub,2013-03-12 22:02:00,
2013-03-12 18:07:00,52.7,37.0,29.91,North,1,0.0,8.0,55,0.00,,,1.41,meteohub,2013-03-12 22:07:00,
2013-03-12 18:12:00,52.3,36.1,29.91,NNE,23,1.0,4.0,54,0.00,,,1.41,meteohub,2013-03-12 22:12:00,
2013-03-12 18:17:00,52.0,35.8,29.91,NNW,347,5.0,6.0,54,0.00,,,1.41,meteohub,2013-03-12 22:17:00,
2013-03-12 18:22:00,51.6,35.6,29.91,NNW,340,2.0,9.0,54,0.00,,,1.41,meteohub,2013-03-12 22:22:00,
2013-03-12 18:27:00,51.6,35.6,29.91,NNE,30,4.0,9.0,54,0.00,,,1.41,meteohub,2013-03-12 22:27:00,
2013-03-12 18:32:00,51.6,35.6,29.91,East,96,1.0,9.0,54,0.00,,,1.41,meteohub,2013-03-12 22:32:00,
2013-03-12 18:37:00,51.4,34.9,29.92,NNE,23,5.0,5.0,53,0.00,,,1.41,meteohub,2013-03-12 22:37:00,
2013-03-12 18:42:00,50.7,34.2,29.92,NE,45,5.0,5.0,53,0.00,,,1.41,meteohub,2013-03-12 22:42:00,
2013-03-12 18:47:00,50.0,34.0,29.93,NNE,30,5.0,9.0,54,0.00,,,1.41,meteohub,2013-03-12 22:47:00,
2013-03-12 18:52:00,49.5,33.4,29.93,NNE,19,4.0,9.0,54,0.00,,,1.41,meteohub,2013-03-12 22:52:00,
2013-03-12 18:57:00,48.9,34.0,29.94,NE,43,4.0,9.0,56,0.00,,,1.41,meteohub,2013-03-12 22:57:00,
2013-03-12 19:02:00,48.4,33.4,29.94,NE,47,7.0,9.0,56,0.00,,,1.41,meteohub,2013-03-12 23:02:00,
2013-03-12 19:07:00,47.7,32.7,29.94,NE,36,7.0,9.0,56,0.00,,,1.41,meteohub,2013-03-12 23:07:00,
2013-03-12 19:12:00,47.1,32.7,29.94,NE,41,1.0,12.0,57,0.00,,,1.41,meteohub,2013-03-12 23:12:00,
2013-03-12 19:17:00,46.8,32.7,29.94,NNE,32,6.0,12.0,58,0.00,,,1.41,meteohub,2013-03-12 23:17:00,
2013-03-12 19:22:00,46.2,33.1,29.95,NE,47,0.0,12.0,60,0.00,,,1.41,meteohub,2013-03-12 23:22:00,
2013-03-12 19:27:00,45.7,32.5,29.95,ENE,65,5.0,9.0,60,0.00,,,1.41,meteohub,2013-03-12 23:27:00,
2013-03-12 19:32:00,45.5,32.4,29.96,NE,44,7.0,7.0,60,0.00,,,1.41,meteohub,2013-03-12 23:32:00,
2013-03-12 19:37:00,45.1,32.9,29.96,NNE,33,1.0,7.0,62,0.00,,,1.41,meteohub,2013-03-12 23:37:00,
2013-03-12 19:43:00,44.8,32.2,29.96,East,94,1.0,7.0,61,0.00,,,1.41,meteohub,2013-03-12 23:43:00,
2013-03-12 19:48:00,44.4,32.2,29.96,East,89,0.0,7.0,62,0.00,,,1.41,meteohub,2013-03-12 23:48:00,
2013-03-12 19:53:00,44.1,32.4,29.96,ENE,64,2.0,6.0,63,0.00,,,1.41,meteohub,2013-03-12 23:53:00,
2013-03-12 19:58:00,43.7,31.5,29.96,ENE,57,3.0,8.0,62,0.00,,,1.41,meteohub,2013-03-12 23:58:00,
2013-03-12 20:03:00,43.5,31.3,29.97,ESE,110,2.0,8.0,62,0.00,,,1.41,meteohub,2013-03-13 00:03:00,
2013-03-12 20:08:00,43.3,31.3,29.97,NE,51,0.0,8.0,62,0.00,,,0.00,meteohub,2013-03-13 00:08:00,
2013-03-12 20:13:00,43.2,31.5,29.97,SE,143,0.0,7.0,63,0.00,,,0.00,meteohub,2013-03-13 00:13:00,
2013-03-12 20:18:00,43.0,31.3,29.97,NE,44,0.0,7.0,63,0.00,,,0.00,meteohub,2013-03-13 00:18:00,
2013-03-12 20:23:00,42.6,31.3,29.97,SSE,163,0.0,4.0,64,0.00,,,0.00,meteohub,2013-03-13 00:23:00,
2013-03-12 20:28:00,42.4,31.1,29.97,East,95,0.0,3.0,64,0.00,,,0.00,meteohub,2013-03-13 00:28:00,
2013-03-12 20:33:00,42.1,31.1,29.98,ESE,123,0.0,3.0,65,0.00,,,0.00,meteohub,2013-03-13 00:33:00,
2013-03-12 20:38:00,41.7,30.7,29.98,SE,127,0.0,2.0,65,0.00,,,0.00,meteohub,2013-03-13 00:38:00,
2013-03-12 20:43:00,41.4,30.9,29.98,ESE,104,1.0,2.0,66,0.00,,,0.00,meteohub,2013-03-13 00:43:00,
2013-03-12 20:48:00,41.2,30.7,29.98,East,91,0.0,2.0,66,0.00,,,0.00,meteohub,2013-03-13 00:48:00,
2013-03-12 20:53:00,40.8,30.7,29.98,ESE,120,0.0,2.0,67,0.00,,,0.00,meteohub,2013-03-13 00:53:00,
2013-03-12 20:58:00,40.5,30.4,29.98,ENE,63,0.0,1.0,67,0.00,,,0.00,meteohub,2013-03-13 00:58:00,
2013-03-12 21:03:00,40.5,30.0,29.98,NE,53,0.0,1.0,66,0.00,,,0.00,meteohub,2013-03-13 01:03:00,
2013-03-12 21:08:00,40.5,30.0,29.98,NE,55,2.0,2.0,66,0.00,,,0.00,meteohub,2013-03-13 01:08:00,
2013-03-12 21:13:00,40.6,30.2,29.98,ENE,60,0.0,4.0,66,0.00,,,0.00,meteohub,2013-03-13 01:13:00,
2013-03-12 21:18:00,40.6,30.2,29.99,ENE,72,0.0,4.0,66,0.00,,,0.00,meteohub,2013-03-13 01:18:00,
2013-03-12 21:23:00,40.5,30.0,29.99,ENE,75,0.0,4.0,66,0.00,,,0.00,meteohub,2013-03-13 01:23:00,
2013-03-12 21:28:00,40.3,29.8,29.99,North,1,0.0,4.0,66,0.00,,,0.00,meteohub,2013-03-13 01:28:00,
2013-03-12 21:33:00,39.9,29.8,29.99,North,6,0.0,2.0,67,0.00,,,0.00,meteohub,2013-03-13 01:33:00,
2013-03-12 21:38:00,39.7,30.0,30.00,NE,49,0.0,2.0,68,0.00,,,0.00,meteohub,2013-03-13 01:38:00,
2013-03-12 21:43:00,39.4,29.7,29.99,ESE,104,0.0,2.0,68,0.00,,,0.00,meteohub,2013-03-13 01:43:00,
2013-03-12 21:49:00,39.0,29.3,30.00,ENE,70,0.0,1.0,68,0.00,,,0.00,meteohub,2013-03-13 01:49:00,
2013-03-12 21:54:00,39.0,29.3,30.00,ENE,65,0.0,1.0,68,0.00,,,0.00,meteohub,2013-03-13 01:54:00,
2013-03-12 21:59:00,38.8,29.5,30.00,ENE,67,0.0,1.0,69,0.00,,,0.00,meteohub,2013-03-13 01:59:00,
2013-03-12 22:04:00,38.7,28.9,30.00,East,88,0.0,1.0,68,0.00,,,0.00,meteohub,2013-03-13 02:04:00,
2013-03-12 22:09:00,38.8,29.5,30.00,ESE,108,0.0,2.0,69,0.00,,,0.00,meteohub,2013-03-13 02:09:00,
2013-03-12 22:14:00,38.8,29.1,30.00,ENE,62,2.0,2.0,68,0.00,,,0.00,meteohub,2013-03-13 02:14:00,
2013-03-12 22:19:00,38.8,29.1,30.01,NE,46,0.0,2.0,68,0.00,,,0.00,meteohub,2013-03-13 02:19:00,
2013-03-12 22:24:00,38.3,28.9,30.01,SSW,211,1.0,2.0,69,0.00,,,0.00,meteohub,2013-03-13 02:24:00,
2013-03-12 22:29:00,37.9,28.8,30.01,SSW,194,0.0,2.0,69,0.00,,,0.00,meteohub,2013-03-13 02:29:00,
2013-03-12 22:34:00,37.6,28.8,30.01,SSW,197,0.0,1.0,70,0.00,,,0.00,meteohub,2013-03-13 02:34:00,
2013-03-12 22:39:00,37.2,28.8,30.01,South,178,0.0,1.0,71,0.00,,,0.00,meteohub,2013-03-13 02:39:00,
2013-03-12 22:44:00,36.9,28.9,30.01,South,181,0.0,1.0,73,0.00,,,0.00,meteohub,2013-03-13 02:44:00,
2013-03-12 22:49:00,36.3,28.6,30.01,South,181,0.0,0.0,73,0.00,,,0.00,meteohub,2013-03-13 02:49:00,
2013-03-12 22:54:00,36.1,28.4,30.01,SW,235,0.0,0.0,73,0.00,,,0.00,meteohub,2013-03-13 02:54:00,
2013-03-12 22:59:00,36.1,28.4,30.01,SW,229,0.0,1.0,73,0.00,,,0.00,meteohub,2013-03-13 02:59:00,
2013-03-12 23:04:00,36.0,28.2,30.01,SW,229,0.0,1.0,73,0.00,,,0.00,meteohub,2013-03-13 03:04:00,
2013-03-12 23:09:00,35.8,28.4,30.02,SW,229,0.0,1.0,74,0.00,,,0.00,meteohub,2013-03-13 03:09:00,
2013-03-12 23:14:00,35.4,28.0,30.02,SW,229,0.0,1.0,74,0.00,,,0.00,meteohub,2013-03-13 03:14:00,
2013-03-12 23:19:00,35.2,27.9,30.02,SW,229,0.0,1.0,74,0.00,,,0.00,meteohub,2013-03-13 03:19:00,
2013-03-12 23:24:00,35.1,27.7,30.02,SW,229,0.0,0.0,74,0.00,,,0.00,meteohub,2013-03-13 03:24:00,
2013-03-12 23:29:00,34.9,27.5,30.03,SSW,194,0.0,0.0,74,0.00,,,0.00,meteohub,2013-03-13 03:29:00,
2013-03-12 23:34:00,35.1,27.3,30.03,SSW,197,0.0,0.0,73,0.00,,,0.00,meteohub,2013-03-13 03:34:00,
2013-03-12 23:39:00,35.2,27.1,30.03,SSW,197,0.0,0.0,72,0.00,,,0.00,meteohub,2013-03-13 03:39:00,
2013-03-12 23:44:00,35.2,27.1,30.03,SSW,197,0.0,0.0,72,0.00,,,0.00,meteohub,2013-03-13 03:44:00,
2013-03-12 23:49:00,35.4,27.0,30.04,SSW,199,0.0,0.0,71,0.00,,,0.00,meteohub,2013-03-13 03:49:00,
2013-03-12 23:54:00,35.8,27.0,30.03,SSW,199,0.0,0.0,70,0.00,,,0.00,meteohub,2013-03-13 03:54:00,
2013-03-12 23:59:00,35.8,27.0,30.03,SSW,198,0.0,0.0,70,0.00,,,0.00,meteohub,2013-03-13 03:59:00,